Time;durP1;ratioP1;P1;durP2;ratioP2;P2;SDS_P1;SDS_P2;PMS_P1;PMS_P2;Temp;Humidity;BMP_temperature;BMP_pressure;BME280_temperature;BME280_humidity;BME280_pressure;Samples;Min_cycle;Max_cycle;Signal;HPM_P1;HPM_P2
2021/08/23 00:00:10;;;;;;;17.88;9.27;;;18.30;99.90;;;;;;4990950;28;20058;-78
2021/08/23 00:02:38;;;;;;;18.02;9.20;;;18.30;99.90;;;;;;5002452;28;20038;-78
2021/08/23 00:05:07;;;;;;;17.00;8.98;;;18.20;99.90;;;;;;5002604;28;20041;-78
2021/08/23 00:07:35;;;;;;;15.25;8.13;;;18.20;99.90;;;;;;5009130;28;20058;-78
2021/08/23 00:10:04;;;;;;;17.95;9.55;;;18.10;99.90;;;;;;5020454;28;20117;-78
2021/08/23 00:12:32;;;;;;;21.05;9.50;;;18.10;99.90;;;;;;5026615;28;20058;-78
2021/08/23 00:15:01;;;;;;;19.63;9.35;;;18.00;99.90;;;;;;5020269;28;20033;-78
2021/08/23 00:17:30;;;;;;;19.77;9.85;;;18.00;99.90;;;;;;5011532;28;20051;-78
2021/08/23 00:19:58;;;;;;;18.25;9.85;;;17.90;99.90;;;;;;5004011;28;20053;-79
2021/08/23 00:22:32;;;;;;;19.75;9.90;;;17.90;99.90;;;;;;5008842;28;20064;-78
2021/08/23 00:25:01;;;;;;;19.85;11.52;;;17.80;99.90;;;;;;5022166;28;20054;-79
2021/08/23 00:27:30;;;;;;;19.55;9.38;;;17.80;99.90;;;;;;5021454;28;20054;-78
2021/08/23 00:30:13;;;;;;;18.40;10.60;;;17.70;99.90;;;;;;5007009;28;20061;-78
2021/08/23 00:32:42;;;;;;;17.13;10.57;;;17.70;99.90;;;;;;5030622;28;20042;-79
2021/08/23 00:35:10;;;;;;;18.52;10.80;;;17.70;99.90;;;;;;5023141;28;20065;-79
2021/08/23 00:37:38;;;;;;;16.30;10.35;;;17.70;99.90;;;;;;5037707;28;20069;-78
2021/08/23 00:40:08;;;;;;;20.10;10.43;;;17.70;99.90;;;;;;5026451;28;20060;-78
2021/08/23 00:42:36;;;;;;;18.63;11.25;;;17.70;99.90;;;;;;5025566;28;20070;-78
2021/08/23 00:45:04;;;;;;;23.52;12.10;;;17.70;99.90;;;;;;5018755;28;20045;-78
2021/08/23 00:47:32;;;;;;;31.42;13.60;;;17.60;99.90;;;;;;5039697;28;20056;-78
2021/08/23 00:50:01;;;;;;;30.88;16.55;;;17.60;99.90;;;;;;5025251;28;20052;-78
2021/08/23 00:52:30;;;;;;;29.85;15.98;;;17.60;99.90;;;;;;5039150;28;20064;-79
2021/08/23 00:54:58;;;;;;;34.95;17.25;;;17.50;99.90;;;;;;5030981;28;20060;-78
2021/08/23 00:57:26;;;;;;;33.53;17.73;;;17.40;99.90;;;;;;5008916;28;20058;-79
2021/08/23 00:59:54;;;;;;;33.15;18.98;;;17.40;99.90;;;;;;5001169;28;20124;-79
2021/08/23 01:02:49;;;;;;;34.75;17.40;;;17.40;99.90;;;;;;5024515;28;20053;-79
2021/08/23 01:05:22;;;;;;;30.95;17.02;;;17.40;99.90;;;;;;5016273;28;20030;-79
2021/08/23 01:07:56;;;;;;;32.55;17.52;;;17.40;99.90;;;;;;5010012;28;20082;-79
2021/08/23 01:10:31;;;;;;;39.15;21.08;;;17.50;99.90;;;;;;5007441;28;20058;-78
2021/08/23 01:13:05;;;;;;;42.35;23.45;;;17.40;99.90;;;;;;5015416;28;20046;-79
2021/08/23 01:15:35;;;;;;;40.65;23.02;;;17.40;99.90;;;;;;5020187;28;20057;-78
2021/08/23 01:18:04;;;;;;;41.05;20.85;;;17.40;99.90;;;;;;5008590;28;20046;-79
2021/08/23 01:20:41;;;;;;;33.58;18.45;;;17.40;99.90;;;;;;5017463;28;20049;-79
2021/08/23 01:23:11;;;;;;;30.13;16.23;;;17.40;99.90;;;;;;5004326;28;20050;-78
2021/08/23 01:25:44;;;;;;;29.77;16.05;;;17.40;99.90;;;;;;5032408;28;20050;-79
2021/08/23 01:28:21;;;;;;;36.90;17.30;;;17.30;99.90;;;;;;5000806;28;20450;-79
2021/08/23 01:31:13;;;;;;;33.55;16.25;;;17.30;99.90;;;;;;5025165;28;20050;-78
2021/08/23 01:33:44;;;;;;;28.95;13.23;;;17.30;99.90;;;;;;5037915;28;20053;-79
2021/08/23 01:36:13;;;;;;;28.48;14.50;;;17.30;99.90;;;;;;5050826;28;20050;-79
2021/08/23 01:38:41;;;;;;;30.45;14.32;;;17.20;99.90;;;;;;5045061;28;20050;-78
2021/08/23 01:41:10;;;;;;;30.77;14.60;;;17.20;99.90;;;;;;5055795;28;20041;-78
2021/08/23 01:43:38;;;;;;;29.65;16.45;;;17.10;99.90;;;;;;5059521;28;20494;-79
2021/08/23 01:46:06;;;;;;;30.95;16.17;;;17.10;99.90;;;;;;5038052;28;20064;-78
2021/08/23 01:48:34;;;;;;;26.58;13.82;;;17.10;99.90;;;;;;5039517;28;20057;-79
2021/08/23 01:51:03;;;;;;;28.00;14.85;;;17.00;99.90;;;;;;5034648;28;20046;-79
2021/08/23 01:53:35;;;;;;;27.13;14.85;;;17.00;99.90;;;;;;5035053;28;20049;-79
2021/08/23 01:56:04;;;;;;;25.33;11.98;;;17.00;99.90;;;;;;5058332;28;20053;-79
2021/08/23 01:58:32;;;;;;;27.15;13.20;;;16.90;99.90;;;;;;5043726;28;20061;-78
2021/08/23 02:01:00;;;;;;;24.73;13.32;;;16.90;99.90;;;;;;5038046;28;20038;-78
2021/08/23 02:03:28;;;;;;;25.98;15.02;;;16.80;99.90;;;;;;5058601;28;20049;-79
2021/08/23 02:05:56;;;;;;;28.17;13.93;;;16.80;99.90;;;;;;5038868;28;20052;-79
2021/08/23 02:08:24;;;;;;;26.35;14.23;;;16.70;99.90;;;;;;5043160;28;20065;-79
2021/08/23 02:10:52;;;;;;;23.45;13.35;;;16.70;99.90;;;;;;5018367;28;20041;-79
2021/08/23 02:13:22;;;;;;;23.40;14.23;;;16.70;99.90;;;;;;5037091;28;20045;-79
2021/08/23 02:15:50;;;;;;;28.50;14.05;;;16.70;99.90;;;;;;5030789;28;20052;-78
2021/08/23 02:18:18;;;;;;;21.63;11.60;;;16.70;99.90;;;;;;5038309;28;20067;-79
2021/08/23 02:20:47;;;;;;;20.23;10.50;;;16.70;99.90;;;;;;5042965;28;20041;-79
2021/08/23 02:23:14;;;;;;;22.38;11.57;;;16.70;99.90;;;;;;5038589;28;20046;-78
2021/08/23 02:25:43;;;;;;;23.00;11.75;;;16.70;99.90;;;;;;5031049;28;20046;-79
2021/08/23 02:28:12;;;;;;;25.55;11.20;;;16.60;99.90;;;;;;5028321;28;20045;-78
2021/08/23 02:30:41;;;;;;;20.70;11.40;;;16.60;99.90;;;;;;5041017;28;20054;-79
2021/08/23 02:33:08;;;;;;;18.02;10.13;;;16.60;99.90;;;;;;5036211;28;20046;-79
2021/08/23 02:35:37;;;;;;;20.50;12.15;;;16.70;99.90;;;;;;5021123;28;20046;-79
2021/08/23 02:38:07;;;;;;;22.30;10.77;;;16.70;99.90;;;;;;5046282;28;20063;-78
2021/08/23 02:40:35;;;;;;;18.90;9.77;;;16.60;99.90;;;;;;5051812;28;20045;-79
2021/08/23 02:43:04;;;;;;;19.55;9.13;;;16.60;99.90;;;;;;5041877;28;20057;-78
2021/08/23 02:45:32;;;;;;;23.17;9.95;;;16.60;99.90;;;;;;5042702;28;20045;-78
2021/08/23 02:48:00;;;;;;;23.40;9.70;;;16.60;99.90;;;;;;5038614;28;20541;-79
2021/08/23 02:50:28;;;;;;;20.80;9.85;;;16.50;99.90;;;;;;5041343;28;20037;-79
2021/08/23 02:52:56;;;;;;;27.70;10.60;;;16.50;99.90;;;;;;5043150;28;20056;-78
2021/08/23 02:55:24;;;;;;;16.27;8.68;;;16.50;99.90;;;;;;5056535;28;20053;-78
2021/08/23 02:57:52;;;;;;;18.27;9.02;;;16.50;99.90;;;;;;5027990;28;20045;-79
2021/08/23 03:00:20;;;;;;;21.40;10.52;;;16.50;99.90;;;;;;5041433;28;20038;-78
2021/08/23 03:02:49;;;;;;;21.25;10.13;;;16.50;99.90;;;;;;5058212;28;20041;-79
2021/08/23 03:05:16;;;;;;;20.80;9.60;;;16.40;99.90;;;;;;5037054;28;20046;-79
2021/08/23 03:07:45;;;;;;;19.13;9.93;;;16.50;99.90;;;;;;5033769;28;20053;-79
2021/08/23 03:10:13;;;;;;;17.10;8.50;;;16.50;99.90;;;;;;5025558;28;20049;-79
2021/08/23 03:12:42;;;;;;;17.20;8.98;;;16.50;99.90;;;;;;5050355;28;20036;-79
2021/08/23 03:15:10;;;;;;;19.15;9.18;;;16.50;99.90;;;;;;5039689;28;20045;-79
2021/08/23 03:17:38;;;;;;;18.20;7.85;;;16.50;99.90;;;;;;5041806;28;20059;-78
2021/08/23 03:20:07;;;;;;;26.55;9.25;;;16.50;99.90;;;;;;5031117;28;20041;-79
2021/08/23 03:22:36;;;;;;;17.48;8.50;;;16.50;99.90;;;;;;5040035;28;20068;-79
2021/08/23 03:25:05;;;;;;;14.95;7.88;;;16.50;99.90;;;;;;5032491;28;20042;-79
2021/08/23 03:27:34;;;;;;;17.80;7.15;;;16.50;99.90;;;;;;5032146;28;20060;-79
2021/08/23 03:30:03;;;;;;;21.75;7.80;;;16.50;99.90;;;;;;5050491;28;20049;-79
2021/08/23 03:32:32;;;;;;;15.27;7.10;;;16.50;99.90;;;;;;5022193;28;20060;-80
2021/08/23 03:35:01;;;;;;;13.20;7.43;;;16.40;99.90;;;;;;5022664;28;20045;-79
2021/08/23 03:37:29;;;;;;;14.50;7.00;;;16.40;99.90;;;;;;5015437;28;20061;-79
2021/08/23 03:39:57;;;;;;;16.60;7.57;;;16.40;99.90;;;;;;5020371;28;20046;-79
2021/08/23 03:42:25;;;;;;;17.33;7.07;;;16.50;99.90;;;;;;5009697;28;20052;-79
2021/08/23 03:44:53;;;;;;;15.55;7.55;;;16.40;99.90;;;;;;5004419;28;20546;-78
2021/08/23 03:47:22;;;;;;;15.93;6.65;;;16.40;99.90;;;;;;5004287;28;20046;-79
2021/08/23 03:49:52;;;;;;;14.65;7.45;;;16.40;99.90;;;;;;5012381;28;20580;-79
2021/08/23 03:52:21;;;;;;;14.15;6.57;;;16.40;99.90;;;;;;5018766;28;20061;-79
2021/08/23 03:54:49;;;;;;;20.48;7.25;;;16.40;99.90;;;;;;5001962;28;20050;-79
2021/08/23 03:57:17;;;;;;;15.05;6.38;;;16.40;99.90;;;;;;5017867;28;20049;-79
2021/08/23 03:59:49;;;;;;;15.23;7.15;;;16.40;99.90;;;;;;5041337;28;20065;-79
2021/08/23 04:02:17;;;;;;;16.90;7.22;;;16.30;99.90;;;;;;5013987;28;20046;-79
2021/08/23 04:04:45;;;;;;;13.18;6.05;;;16.30;99.90;;;;;;5018019;28;20050;-79
2021/08/23 04:07:14;;;;;;;17.73;7.70;;;16.30;99.90;;;;;;5017109;28;20056;-79
2021/08/23 04:09:42;;;;;;;16.83;6.55;;;16.20;99.90;;;;;;5024800;28;20068;-78
2021/08/23 04:12:11;;;;;;;15.48;6.63;;;16.10;99.90;;;;;;5021037;28;20523;-79
2021/08/23 04:14:39;;;;;;;12.20;5.97;;;16.10;99.90;;;;;;5008048;28;20061;-79
2021/08/23 04:17:09;;;;;;;19.42;8.63;;;16.10;99.90;;;;;;5015251;28;20049;-79
2021/08/23 04:19:37;;;;;;;17.40;6.57;;;16.10;99.90;;;;;;5017851;28;20049;-78
2021/08/23 04:22:06;;;;;;;16.40;8.13;;;16.10;99.90;;;;;;5006248;28;20058;-78
2021/08/23 04:24:33;;;;;;;15.20;6.88;;;16.10;99.90;;;;;;5014592;28;20519;-79
2021/08/23 04:27:02;;;;;;;15.73;5.78;;;16.10;99.90;;;;;;5018434;28;20038;-79
2021/08/23 04:29:29;;;;;;;18.38;9.05;;;16.10;99.90;;;;;;5027812;28;20049;-79
2021/08/23 04:31:57;;;;;;;15.30;7.03;;;16.10;99.90;;;;;;5056606;28;20053;-79
2021/08/23 04:34:27;;;;;;;17.35;7.43;;;16.10;99.90;;;;;;5026658;28;20057;-79
2021/08/23 04:36:55;;;;;;;16.85;7.65;;;16.10;99.90;;;;;;5063557;28;20048;-78
2021/08/23 04:39:23;;;;;;;15.45;6.40;;;16.10;99.90;;;;;;5043688;28;20049;-79
2021/08/23 04:41:51;;;;;;;14.88;8.00;;;16.10;99.90;;;;;;5047973;28;20045;-79
2021/08/23 04:44:20;;;;;;;15.38;6.38;;;16.00;99.90;;;;;;5037731;28;20049;-79
2021/08/23 04:46:49;;;;;;;12.80;6.40;;;16.00;99.90;;;;;;5053077;28;20060;-79
2021/08/23 04:49:17;;;;;;;18.70;6.55;;;16.00;99.90;;;;;;5042631;28;20056;-78
2021/08/23 04:51:45;;;;;;;18.85;6.32;;;15.90;99.90;;;;;;5050429;28;20045;-79
2021/08/23 04:54:13;;;;;;;11.77;6.22;;;15.90;99.90;;;;;;5022475;28;20045;-79
2021/08/23 04:56:42;;;;;;;16.33;5.55;;;15.90;99.90;;;;;;5058556;28;20041;-79
2021/08/23 04:59:10;;;;;;;18.88;7.10;;;15.90;99.90;;;;;;5059787;28;20075;-79
2021/08/23 05:01:38;;;;;;;9.27;5.22;;;16.00;99.90;;;;;;5039664;28;20056;-79
2021/08/23 05:04:06;;;;;;;15.02;6.25;;;16.00;99.90;;;;;;5059890;28;20423;-79
2021/08/23 05:06:34;;;;;;;12.77;5.22;;;16.00;99.90;;;;;;5044941;28;20051;-79
2021/08/23 05:09:02;;;;;;;13.23;5.28;;;16.10;99.90;;;;;;5039134;28;20051;-78
2021/08/23 05:11:31;;;;;;;14.18;6.03;;;16.00;99.90;;;;;;5046904;28;20037;-79
2021/08/23 05:14:00;;;;;;;13.57;5.45;;;16.10;99.90;;;;;;5056217;28;20044;-79
2021/08/23 05:16:33;;;;;;;10.95;6.05;;;16.10;99.90;;;;;;5045729;28;20128;-79
2021/08/23 05:19:00;;;;;;;15.27;5.60;;;16.10;99.90;;;;;;5025976;28;20052;-79
2021/08/23 05:21:28;;;;;;;20.60;6.43;;;16.10;99.90;;;;;;5050321;28;20061;-79
2021/08/23 05:23:58;;;;;;;11.80;5.07;;;16.20;99.90;;;;;;5044856;28;20042;-79
2021/08/23 05:26:26;;;;;;;12.63;7.03;;;16.10;99.90;;;;;;5045029;28;20534;-79
2021/08/23 05:28:53;;;;;;;14.63;6.00;;;16.20;99.90;;;;;;5054035;28;20049;-78
2021/08/23 05:31:22;;;;;;;13.98;5.85;;;16.30;99.90;;;;;;5036878;28;20040;-79
2021/08/23 05:33:52;;;;;;;18.17;6.13;;;16.30;99.90;;;;;;5040362;28;20488;-79
2021/08/23 05:36:20;;;;;;;17.65;6.53;;;16.30;99.90;;;;;;5048105;28;20044;-79
2021/08/23 05:38:49;;;;;;;13.43;5.05;;;16.30;99.90;;;;;;5043731;28;20064;-78
2021/08/23 05:41:17;;;;;;;11.32;4.28;;;16.30;99.90;;;;;;5049847;28;20042;-79
2021/08/23 05:43:46;;;;;;;11.55;4.63;;;16.40;99.90;;;;;;5032549;28;20064;-79
2021/08/23 05:46:19;;;;;;;16.33;5.78;;;16.40;99.90;;;;;;5030189;28;20041;-79
2021/08/23 05:48:51;;;;;;;13.75;5.97;;;16.40;99.90;;;;;;5025315;28;20050;-79
2021/08/23 05:51:19;;;;;;;10.02;5.60;;;16.40;99.90;;;;;;5043496;28;20049;-79
2021/08/23 05:53:48;;;;;;;10.80;5.28;;;16.40;99.90;;;;;;5030432;28;20045;-78
2021/08/23 05:56:16;;;;;;;12.93;4.68;;;16.40;99.90;;;;;;5012227;28;20054;-78
2021/08/23 05:58:47;;;;;;;7.75;3.92;;;16.50;99.90;;;;;;5029044;28;20056;-79
2021/08/23 06:01:15;;;;;;;12.90;5.13;;;16.50;99.90;;;;;;5037724;28;20049;-78
2021/08/23 06:03:44;;;;;;;16.55;5.03;;;16.50;99.90;;;;;;5041421;28;20049;-78
2021/08/23 06:06:13;;;;;;;16.77;7.18;;;16.50;99.90;;;;;;5025536;28;20045;-79
2021/08/23 06:08:44;;;;;;;11.10;5.85;;;16.50;99.90;;;;;;5039326;28;20050;-79
2021/08/23 06:11:13;;;;;;;12.05;5.18;;;16.50;99.90;;;;;;5041798;28;20046;-78
2021/08/23 06:13:42;;;;;;;9.48;4.13;;;16.50;99.90;;;;;;5039692;28;20048;-79
2021/08/23 06:16:10;;;;;;;16.35;5.28;;;16.50;99.90;;;;;;5043448;28;20076;-80
2021/08/23 06:18:38;;;;;;;12.65;4.85;;;16.50;99.90;;;;;;5041431;28;20064;-79
2021/08/23 06:21:09;;;;;;;10.80;5.07;;;16.60;99.90;;;;;;5042735;28;20033;-79
2021/08/23 06:23:37;;;;;;;10.07;4.82;;;16.60;99.90;;;;;;5041552;28;20068;-78
2021/08/23 06:26:05;;;;;;;7.30;4.82;;;16.60;99.90;;;;;;5037670;28;20034;-79
2021/08/23 06:28:33;;;;;;;11.02;3.88;;;16.60;99.90;;;;;;5038084;28;20041;-79
2021/08/23 06:31:01;;;;;;;9.82;4.07;;;16.70;99.90;;;;;;5041184;28;20045;-78
2021/08/23 06:33:29;;;;;;;9.13;3.50;;;16.60;99.90;;;;;;5027245;28;20816;-79
2021/08/23 06:35:57;;;;;;;11.05;4.20;;;16.70;99.90;;;;;;5024557;28;20060;-79
2021/08/23 06:38:25;;;;;;;11.00;4.10;;;16.70;99.90;;;;;;5029521;28;20045;-78
2021/08/23 06:40:53;;;;;;;13.50;4.50;;;16.40;99.90;;;;;;5025873;28;20045;-78
2021/08/23 06:43:21;;;;;;;8.60;3.95;;;16.80;99.90;;;;;;5025915;28;20057;-79
2021/08/23 06:45:49;;;;;;;9.80;5.18;;;16.80;99.90;;;;;;5013222;28;20465;-79
2021/08/23 06:48:19;;;;;;;11.02;4.35;;;16.80;99.90;;;;;;5010777;28;20062;-79
2021/08/23 06:50:47;;;;;;;17.90;4.20;;;16.90;99.90;;;;;;5024664;28;20396;-80
2021/08/23 06:53:16;;;;;;;6.53;3.25;;;16.90;99.90;;;;;;5018049;28;20051;-78
2021/08/23 06:55:44;;;;;;;5.75;3.70;;;16.90;99.90;;;;;;5026809;28;20045;-78
2021/08/23 06:58:12;;;;;;;10.63;3.72;;;16.90;99.90;;;;;;5029379;28;20038;-79
2021/08/23 07:00:40;;;;;;;10.48;3.78;;;17.00;99.90;;;;;;5017864;28;20592;-79
2021/08/23 07:03:09;;;;;;;9.25;4.57;;;17.00;99.90;;;;;;5030015;28;20048;-80
2021/08/23 07:05:36;;;;;;;8.25;3.67;;;17.10;99.90;;;;;;5029010;28;20049;-80
2021/08/23 07:08:05;;;;;;;12.02;4.82;;;17.10;99.90;;;;;;5036190;28;20045;-80
2021/08/23 07:10:33;;;;;;;11.52;4.15;;;17.10;99.90;;;;;;5041838;28;20053;-82
2021/08/23 07:13:02;;;;;;;11.13;4.25;;;17.20;99.90;;;;;;5024593;28;20049;-81
2021/08/23 07:15:30;;;;;;;13.93;5.35;;;17.20;99.90;;;;;;5039531;28;20056;-78
2021/08/23 07:17:58;;;;;;;13.98;4.35;;;17.20;99.90;;;;;;5040981;28;20065;-81
2021/08/23 07:20:54;;;;;;;10.88;4.15;;;17.20;99.90;;;;;;5041272;28;20056;-82
2021/08/23 07:23:23;;;;;;;10.70;6.50;;;16.70;99.90;;;;;;5030520;28;20125;-82
2021/08/23 07:26:02;;;;;;;11.00;4.60;;;17.20;99.90;;;;;;5033671;28;20069;-80
2021/08/23 07:29:04;;;;;;;18.80;6.35;;;17.30;99.90;;;;;;5024021;28;20056;-81
2021/08/23 07:31:45;;;;;;;12.18;4.47;;;17.30;99.90;;;;;;5017688;28;20052;-79
2021/08/23 07:34:13;;;;;;;8.88;4.38;;;17.30;99.90;;;;;;5020924;28;20038;-80
2021/08/23 07:36:41;;;;;;;11.60;5.07;;;17.70;99.90;;;;;;5030075;28;20052;-80
2021/08/23 07:39:25;;;;;;;8.60;4.57;;;17.30;99.90;;;;;;5015082;28;20065;-80
2021/08/23 07:41:53;;;;;;;16.98;5.65;;;17.30;99.90;;;;;;5011330;28;20046;-81
2021/08/23 07:44:22;;;;;;;13.48;4.90;;;17.30;99.90;;;;;;5012462;28;20052;-82
2021/08/23 07:46:51;;;;;;;13.13;5.43;;;17.30;99.90;;;;;;5026479;28;20050;-79
2021/08/23 07:49:19;;;;;;;16.50;4.90;;;17.30;99.90;;;;;;5014949;28;20056;-81
2021/08/23 07:51:47;;;;;;;11.23;4.45;;;17.20;99.90;;;;;;5018676;28;20034;-80
2021/08/23 07:54:19;;;;;;;7.68;4.97;;;17.20;99.90;;;;;;4988876;28;20058;-82
2021/08/23 07:56:49;;;;;;;10.45;5.05;;;17.20;99.90;;;;;;5018569;28;20042;-80
2021/08/23 07:59:18;;;;;;;5.30;3.85;;;17.30;99.90;;;;;;5015727;28;20045;-81
2021/08/23 08:01:46;;;;;;;13.07;5.45;;;17.30;99.90;;;;;;5012478;28;20053;-80
2021/08/23 08:04:14;;;;;;;13.70;5.93;;;17.40;99.90;;;;;;5010327;28;20043;-81
2021/08/23 08:06:44;;;;;;;11.98;5.13;;;17.50;99.90;;;;;;5030068;28;20405;-78
2021/08/23 08:09:12;;;;;;;10.55;4.28;;;17.50;99.90;;;;;;5008506;28;20053;-78
2021/08/23 08:11:40;;;;;;;10.15;4.28;;;17.60;99.90;;;;;;5013617;28;20042;-81
2021/08/23 08:14:09;;;;;;;17.55;5.13;;;17.70;99.90;;;;;;5005145;28;20054;-81
2021/08/23 08:16:36;;;;;;;9.43;4.93;;;17.70;99.90;;;;;;5009909;28;20112;-81
2021/08/23 08:19:04;;;;;;;11.40;4.95;;;17.70;99.90;;;;;;5005651;28;20050;-80
2021/08/23 08:21:36;;;;;;;13.13;4.78;;;17.70;99.90;;;;;;5006449;28;20046;-81
2021/08/23 08:24:05;;;;;;;12.13;4.95;;;17.70;99.90;;;;;;5006833;28;20042;-80
2021/08/23 08:26:39;;;;;;;10.07;5.20;;;17.70;99.90;;;;;;5007408;28;20042;-81
2021/08/23 08:29:09;;;;;;;12.50;4.97;;;17.70;99.90;;;;;;5016400;28;20048;-78
2021/08/23 08:31:37;;;;;;;12.90;4.18;;;17.70;99.90;;;;;;5040344;28;20045;-80
2021/08/23 08:34:05;;;;;;;13.02;5.65;;;17.80;99.90;;;;;;5015566;28;20046;-81
2021/08/23 08:36:33;;;;;;;11.82;5.15;;;17.80;99.90;;;;;;5051433;28;20438;-79
2021/08/23 08:39:01;;;;;;;12.73;5.28;;;17.80;99.90;;;;;;5038639;28;20049;-79
2021/08/23 08:41:30;;;;;;;12.15;4.32;;;17.90;99.90;;;;;;5050528;28;20065;-80
2021/08/23 08:44:01;;;;;;;11.10;4.32;;;17.90;99.90;;;;;;5036030;28;20047;-80
2021/08/23 08:46:34;;;;;;;9.48;4.63;;;18.00;99.90;;;;;;5044076;28;20045;-80
2021/08/23 08:49:06;;;;;;;12.13;4.07;;;18.10;99.90;;;;;;5034327;28;20071;-82
2021/08/23 08:52:02;;;;;;;11.18;5.10;;;18.20;99.90;;;;;;5018952;28;20053;-82
2021/08/23 08:54:31;;;;;;;14.23;4.97;;;18.40;99.90;;;;;;5039977;28;20045;-81
2021/08/23 08:57:03;;;;;;;10.63;4.07;;;18.50;99.90;;;;;;5046694;28;20041;-80
2021/08/23 08:59:35;;;;;;;11.48;4.60;;;18.60;99.90;;;;;;5047848;28;20730;-83
2021/08/23 09:02:29;;;;;;;8.55;3.97;;;18.70;99.90;;;;;;5034571;28;20068;-83
2021/08/23 09:04:58;;;;;;;11.05;3.33;;;18.80;99.90;;;;;;5052515;28;20049;-83
2021/08/23 09:07:37;;;;;;;9.27;3.88;;;18.90;99.90;;;;;;5043542;28;20041;-83
2021/08/23 09:10:25;;;;;;;9.63;3.35;;;19.00;99.90;;;;;;5047783;28;20041;-81
2021/08/23 09:13:03;;;;;;;7.78;3.50;;;19.00;99.90;;;;;;5042542;28;20053;-82
2021/08/23 09:15:33;;;;;;;10.07;3.33;;;19.10;99.90;;;;;;5043430;28;20038;-80
2021/08/23 09:18:10;;;;;;;10.85;3.28;;;19.10;99.90;;;;;;5044219;28;20056;-80
2021/08/23 09:20:38;;;;;;;8.15;3.10;;;19.10;99.90;;;;;;5038685;28;20053;-83
2021/08/23 09:23:13;;;;;;;12.05;5.47;;;19.10;99.90;;;;;;5041735;28;20045;-81
2021/08/23 09:25:45;;;;;;;8.82;3.70;;;19.10;99.90;;;;;;5055932;28;20053;-83
2021/08/23 09:28:15;;;;;;;14.65;4.13;;;19.10;99.90;;;;;;5029234;28;20060;-82
2021/08/23 09:30:58;;;;;;;12.05;4.30;;;19.20;99.90;;;;;;5019627;28;20045;-82
2021/08/23 09:33:26;;;;;;;10.70;4.30;;;19.00;99.90;;;;;;5014827;28;20050;-81
2021/08/23 09:35:55;;;;;;;9.85;3.75;;;19.10;99.90;;;;;;5031379;28;20042;-83
2021/08/23 09:38:23;;;;;;;14.90;4.75;;;19.10;99.90;;;;;;5018517;28;20049;-80
2021/08/23 09:41:04;;;;;;;10.60;4.07;;;19.10;99.90;;;;;;5000356;28;20061;-79
2021/08/23 09:43:35;;;;;;;7.72;3.72;;;19.10;99.90;;;;;;5016457;28;20050;-82
2021/08/23 09:46:11;;;;;;;7.68;4.13;;;19.10;99.90;;;;;;5014925;28;20042;-80
2021/08/23 09:48:51;;;;;;;14.40;4.45;;;19.10;99.90;;;;;;5010370;28;20061;-79
2021/08/23 09:51:28;;;;;;;7.75;3.78;;;19.10;99.90;;;;;;5016217;28;20047;-82
2021/08/23 09:54:19;;;;;;;9.27;3.38;;;18.80;99.90;;;;;;5017428;28;20050;-79
2021/08/23 09:56:53;;;;;;;11.68;4.40;;;19.10;99.90;;;;;;5019487;28;20050;-81
2021/08/23 09:59:25;;;;;;;8.63;3.78;;;19.10;99.90;;;;;;5008007;28;20043;-79
2021/08/23 10:01:56;;;;;;;10.27;3.85;;;19.10;99.90;;;;;;5010860;28;20039;-79
2021/08/23 10:04:27;;;;;;;11.05;5.80;;;19.20;99.90;;;;;;5013652;28;20058;-82
2021/08/23 10:06:57;;;;;;;;;;;19.30;99.90;;;;;;5030547;28;20057;-79
2021/08/23 10:09:27;;;;;;;11.32;3.60;;;19.40;99.90;;;;;;5020701;28;19929;-82
2021/08/23 10:12:00;;;;;;;8.60;3.28;;;19.50;99.90;;;;;;5007876;28;20060;-81
2021/08/23 10:14:29;;;;;;;12.43;4.20;;;19.70;99.90;;;;;;5008467;28;20501;-84
2021/08/23 10:16:57;;;;;;;12.85;3.90;;;19.80;99.90;;;;;;5012047;28;20066;-79
2021/08/23 10:19:26;;;;;;;9.63;2.97;;;19.90;99.90;;;;;;5003608;28;20049;-82
2021/08/23 10:22:11;;;;;;;7.38;3.83;;;20.00;99.90;;;;;;5012005;28;20046;-82
2021/08/23 10:24:41;;;;;;;7.28;3.10;;;20.10;99.90;;;;;;5014538;28;20058;-80
2021/08/23 10:27:21;;;;;;;7.70;3.30;;;20.10;99.90;;;;;;5009039;28;20069;-79
2021/08/23 10:29:49;;;;;;;7.07;3.75;;;20.20;99.90;;;;;;5017504;28;20080;-81
2021/08/23 10:32:40;;;;;;;9.27;3.55;;;20.00;99.90;;;;;;5035717;28;20054;-82
2021/08/23 10:35:44;;;;;;;9.07;2.97;;;20.30;99.90;;;;;;5029976;28;20038;-81
2021/08/23 10:38:22;;;;;;;8.38;2.83;;;20.30;99.90;;;;;;5031667;28;20048;-81
2021/08/23 10:41:29;;;;;;;14.95;3.95;;;20.30;99.90;;;;;;5036095;28;20470;-81
2021/08/23 10:44:00;;;;;;;10.13;3.42;;;20.30;99.90;;;;;;4981776;28;20043;-80
2021/08/23 10:46:37;;;;;;;10.23;3.03;;;20.20;99.90;;;;;;4965475;28;20039;-81
2021/08/23 10:49:12;;;;;;;10.02;2.72;;;20.20;99.90;;;;;;5020038;28;20055;-83
2021/08/23 10:51:55;;;;;;;9.10;2.63;;;20.20;99.90;;;;;;5023983;28;20065;-82
2021/08/23 10:54:35;;;;;;;14.27;2.83;;;20.20;99.90;;;;;;5047497;28;20056;-81
2021/08/23 10:57:06;;;;;;;10.45;2.70;;;20.20;99.90;;;;;;5035707;28;20049;-83
2021/08/23 10:59:47;;;;;;;9.82;2.63;;;20.20;99.90;;;;;;5051295;28;20054;-80
2021/08/23 11:02:32;;;;;;;6.45;2.50;;;20.30;99.90;;;;;;5026279;28;20052;-85
2021/08/23 11:05:19;;;;;;;15.75;3.28;;;20.30;99.90;;;;;;5035796;28;20065;-82
2021/08/23 11:07:59;;;;;;;15.27;2.97;;;20.30;99.90;;;;;;5038531;28;20045;-82
2021/08/23 11:10:32;;;;;;;8.98;2.10;;;20.30;99.90;;;;;;5021524;28;20042;-85
2021/08/23 11:13:18;;;;;;;7.82;3.35;;;20.30;99.90;;;;;;5015045;28;20053;-83
2021/08/23 11:15:47;;;;;;;10.90;2.90;;;20.30;99.90;;;;;;5009442;28;20057;-81
2021/08/23 11:18:18;;;;;;;6.10;2.60;;;20.20;99.90;;;;;;5004375;28;20045;-80
2021/08/23 11:20:51;;;;;;;10.93;2.28;;;20.10;99.90;;;;;;4976276;28;20311;-81
2021/08/23 11:24:08;;;;;;;11.90;3.90;;;20.20;99.90;;;;;;5002571;28;20144;-84
2021/08/23 11:26:37;;;;;;;9.45;2.70;;;20.30;99.90;;;;;;5017481;28;20484;-85
2021/08/23 11:32:14;;;;;;;6.07;3.40;;;20.60;99.90;;;;;;5038930;28;20041;-82
2021/08/23 11:34:53;;;;;;;9.27;2.67;;;20.70;99.90;;;;;;5055917;28;20045;-80
2021/08/23 11:37:25;;;;;;;7.07;2.55;;;20.90;99.90;;;;;;5061142;28;20403;-82
2021/08/23 11:40:23;;;;;;;11.65;3.80;;;20.90;99.90;;;;;;5034759;28;20042;-83
2021/08/23 11:43:16;;;;;;;12.38;3.15;;;21.00;99.90;;;;;;5048696;28;20041;-81
2021/08/23 11:49:05;;;;;;;8.95;2.60;;;21.00;99.90;;;;;;5043680;28;20048;-79
2021/08/23 11:51:33;;;;;;;8.70;2.70;;;21.10;99.90;;;;;;5048779;28;20046;-82
2021/08/23 11:54:05;;;;;;;7.43;3.53;;;21.20;99.90;;;;;;5039460;28;20056;-80
2021/08/23 11:56:37;;;;;;;6.53;2.50;;;21.30;99.90;;;;;;5047333;28;20415;-84
2021/08/23 11:59:11;;;;;;;;;;;21.40;99.90;;;;;;5044038;28;20085;-81
2021/08/23 12:01:39;;;;;;;8.45;2.80;;;21.40;99.90;;;;;;5044148;28;19933;-81
2021/08/23 12:04:13;;;;;;;4.72;2.58;;;21.50;99.90;;;;;;5047379;28;20042;-81
2021/08/23 12:06:42;;;;;;;10.50;4.25;;;21.30;99.90;;;;;;5029209;28;20391;-80
2021/08/23 12:09:18;;;;;;;9.02;3.28;;;21.50;99.90;;;;;;5042769;28;20054;-79
2021/08/23 12:11:48;;;;;;;7.47;3.28;;;21.50;99.90;;;;;;5058656;28;20049;-85
2021/08/23 12:14:18;;;;;;;5.03;2.53;;;21.60;99.90;;;;;;5046054;28;20045;-82
2021/08/23 12:16:47;;;;;;;10.20;3.38;;;21.60;99.90;;;;;;5064629;28;20044;-84
2021/08/23 12:19:16;;;;;;;11.63;3.40;;;21.60;99.90;;;;;;5072439;28;20115;-84
2021/08/23 12:21:48;;;;;;;10.05;2.40;;;21.60;99.90;;;;;;5054839;28;20049;-82
2021/08/23 12:24:22;;;;;;;6.40;2.78;;;21.70;99.90;;;;;;5050441;28;20052;-82
2021/08/23 12:27:00;;;;;;;7.40;3.03;;;21.60;99.90;;;;;;5049114;28;20056;-81
2021/08/23 12:29:37;;;;;;;10.90;3.13;;;21.60;99.90;;;;;;5042074;28;20056;-80
2021/08/23 12:32:12;;;;;;;7.70;2.63;;;21.60;99.90;;;;;;5049005;28;20049;-82
2021/08/23 12:34:52;;;;;;;13.68;3.25;;;21.60;99.90;;;;;;5029192;28;20077;-81
2021/08/23 12:37:19;;;;;;;10.90;3.88;;;21.60;99.90;;;;;;5036570;28;20045;-83
2021/08/23 12:39:50;;;;;;;5.90;3.20;;;21.60;99.90;;;;;;5049754;28;20045;-83
2021/08/23 12:42:22;;;;;;;6.63;2.47;;;21.50;99.90;;;;;;5043582;28;20049;-84
2021/08/23 12:44:51;;;;;;;10.07;5.32;;;21.50;99.90;;;;;;5040554;28;20546;-80
2021/08/23 12:47:19;;;;;;;8.77;2.92;;;21.50;99.90;;;;;;5049046;28;20034;-85
2021/08/23 12:49:49;;;;;;;9.30;2.97;;;21.50;99.90;;;;;;5058865;28;20045;-86
2021/08/23 12:52:18;;;;;;;11.57;3.28;;;21.50;99.90;;;;;;5052294;28;20064;-84
2021/08/23 12:54:45;;;;;;;16.48;3.13;;;22.30;99.90;;;;;;5071672;28;20044;-82
2021/08/23 12:57:13;;;;;;;5.10;2.50;;;21.80;99.90;;;;;;5054830;28;20049;-81
2021/08/23 12:59:42;;;;;;;6.95;2.97;;;22.00;99.90;;;;;;5053869;28;20053;-81
2021/08/23 13:02:16;;;;;;;8.80;3.42;;;22.10;99.60;;;;;;5060733;28;20048;-82
2021/08/23 13:04:46;;;;;;;8.30;3.10;;;22.20;99.80;;;;;;5057509;28;20072;-82